sensor_id;sensor_type;location;lat;lon;timestamp;pressure;altitude;pressure_sealevel;temperature;humidity
75008;BME280;63554;48.940;12.050;2023-04-24T00:01:40;96434.91;;;10.44;91.13
75008;BME280;63554;48.940;12.050;2023-04-24T00:05:44;96419.75;;;10.43;90.59
75008;BME280;63554;48.940;12.050;2023-04-24T00:09:47;96424.34;;;10.43;90.95
75008;BME280;63554;48.940;12.050;2023-04-24T00:13:51;96411.66;;;10.43;90.85
75008;BME280;63554;48.940;12.050;2023-04-24T00:17:53;96412.47;;;10.44;91.05
75008;BME280;63554;48.940;12.050;2023-04-24T00:21:56;96404.91;;;10.46;91.23
75008;BME280;63554;48.940;12.050;2023-04-24T00:25:59;96398.19;;;10.48;90.92
75008;BME280;63554;48.940;12.050;2023-04-24T00:30:04;96405.84;;;10.52;91.09
75008;BME280;63554;48.940;12.050;2023-04-24T00:34:07;96402.78;;;10.48;91.08
75008;BME280;63554;48.940;12.050;2023-04-24T00:38:10;96399.84;;;10.49;91.13
75008;BME280;63554;48.940;12.050;2023-04-24T00:42:12;96401.97;;;10.47;90.91
75008;BME280;63554;48.940;12.050;2023-04-24T00:46:16;96403.78;;;10.42;91.14
75008;BME280;63554;48.940;12.050;2023-04-24T00:50:20;96396.13;;;10.39;91.15
75008;BME280;63554;48.940;12.050;2023-04-24T00:54:23;96396.13;;;10.39;91.04
75008;BME280;63554;48.940;12.050;2023-04-24T00:58:26;96398.00;;;10.38;91.24
75008;BME280;63554;48.940;12.050;2023-04-24T01:02:30;96402.97;;;10.41;91.16
75008;BME280;63554;48.940;12.050;2023-04-24T01:06:38;96396.22;;;10.44;91.36
75008;BME280;63554;48.940;12.050;2023-04-24T01:10:41;96398.59;;;10.40;91.50
75008;BME280;63554;48.940;12.050;2023-04-24T01:14:44;96400.00;;;10.43;91.89
75008;BME280;63554;48.940;12.050;2023-04-24T01:18:48;96402.38;;;10.39;91.99
75008;BME280;63554;48.940;12.050;2023-04-24T01:22:54;96405.09;;;10.39;92.19
75008;BME280;63554;48.940;12.050;2023-04-24T01:26:57;96417.53;;;10.40;92.17
75008;BME280;63554;48.940;12.050;2023-04-24T01:31:00;96408.84;;;10.38;92.03
75008;BME280;63554;48.940;12.050;2023-04-24T01:35:04;96408.84;;;10.38;92.73
75008;BME280;63554;48.940;12.050;2023-04-24T01:39:08;96407.69;;;10.34;92.54
75008;BME280;63554;48.940;12.050;2023-04-24T01:43:11;96404.97;;;10.34;92.82
75008;BME280;63554;48.940;12.050;2023-04-24T01:47:14;96397.69;;;10.35;93.15
75008;BME280;63554;48.940;12.050;2023-04-24T01:51:18;96402.03;;;10.36;93.10
75008;BME280;63554;48.940;12.050;2023-04-24T01:55:22;96399.34;;;10.36;92.93
75008;BME280;63554;48.940;12.050;2023-04-24T01:59:25;96397.81;;;10.28;93.00
75008;BME280;63554;48.940;12.050;2023-04-24T02:03:30;96392.63;;;10.26;92.96
75008;BME280;63554;48.940;12.050;2023-04-24T02:07:33;96388.28;;;10.25;92.80
75008;BME280;63554;48.940;12.050;2023-04-24T02:11:37;96385.81;;;10.24;92.64
75008;BME280;63554;48.940;12.050;2023-04-24T02:15:39;96393.38;;;10.22;92.64
75008;BME280;63554;48.940;12.050;2023-04-24T02:19:42;96382.78;;;10.20;92.50
75008;BME280;63554;48.940;12.050;2023-04-24T02:23:45;96376.22;;;10.16;92.74
75008;BME280;63554;48.940;12.050;2023-04-24T02:27:49;96374.31;;;10.17;92.66
75008;BME280;63554;48.940;12.050;2023-04-24T02:31:52;96362.59;;;10.11;92.80
75008;BME280;63554;48.940;12.050;2023-04-24T02:35:55;96361.78;;;10.10;92.82
75008;BME280;63554;48.940;12.050;2023-04-24T02:39:57;96364.25;;;10.12;92.65
75008;BME280;63554;48.940;12.050;2023-04-24T02:44:01;96348.75;;;10.07;92.33
75008;BME280;63554;48.940;12.050;2023-04-24T02:48:04;96349.00;;;10.06;92.21
75008;BME280;63554;48.940;12.050;2023-04-24T02:52:06;96350.53;;;10.02;92.12
75008;BME280;63554;48.940;12.050;2023-04-24T02:56:09;96342.44;;;10.02;92.02
75008;BME280;63554;48.940;12.050;2023-04-24T03:00:15;96347.25;;;10.00;92.04
75008;BME280;63554;48.940;12.050;2023-04-24T03:04:18;96342.31;;;9.97;92.11
75008;BME280;63554;48.940;12.050;2023-04-24T03:08:22;96357.22;;;9.99;92.04
75008;BME280;63554;48.940;12.050;2023-04-24T03:12:24;96345.50;;;9.94;91.93
75008;BME280;63554;48.940;12.050;2023-04-24T03:16:28;96346.56;;;9.93;92.15
75008;BME280;63554;48.940;12.050;2023-04-24T03:20:31;96352.78;;;9.93;92.12
75008;BME280;63554;48.940;12.050;2023-04-24T03:24:34;96355.41;;;9.88;92.23
75008;BME280;63554;48.940;12.050;2023-04-24T03:28:36;96348.25;;;9.82;92.15
75008;BME280;63554;48.940;12.050;2023-04-24T03:32:40;96358.00;;;9.83;92.36
75008;BME280;63554;48.940;12.050;2023-04-24T03:36:43;96350.34;;;9.80;92.12
75008;BME280;63554;48.940;12.050;2023-04-24T03:40:48;96363.06;;;9.79;92.33
75008;BME280;63554;48.940;12.050;2023-04-24T03:44:51;96370.13;;;9.80;92.41
75008;BME280;63554;48.940;12.050;2023-04-24T03:48:55;96370.59;;;9.77;92.33
75008;BME280;63554;48.940;12.050;2023-04-24T03:52:58;96359.44;;;9.74;92.07
75008;BME280;63554;48.940;12.050;2023-04-24T03:57:00;96371.53;;;9.71;91.92
75008;BME280;63554;48.940;12.050;2023-04-24T04:01:04;96373.78;;;9.74;92.04
75008;BME280;63554;48.940;12.050;2023-04-24T04:05:09;96364.97;;;9.67;91.95
75008;BME280;63554;48.940;12.050;2023-04-24T04:09:12;96361.13;;;9.63;92.49
75008;BME280;63554;48.940;12.050;2023-04-24T04:13:16;96370.16;;;9.57;92.50
75008;BME280;63554;48.940;12.050;2023-04-24T04:17:19;96368.16;;;9.52;92.67
75008;BME280;63554;48.940;12.050;2023-04-24T04:21:23;96372.97;;;9.50;92.75
75008;BME280;63554;48.940;12.050;2023-04-24T04:25:26;96371.94;;;9.51;92.65
75008;BME280;63554;48.940;12.050;2023-04-24T04:29:29;96365.69;;;9.50;92.37
75008;BME280;63554;48.940;12.050;2023-04-24T04:33:32;96367.13;;;9.41;91.80
75008;BME280;63554;48.940;12.050;2023-04-24T04:37:36;96366.91;;;9.43;92.13
75008;BME280;63554;48.940;12.050;2023-04-24T04:41:39;96374.16;;;9.42;91.85
75008;BME280;63554;48.940;12.050;2023-04-24T04:45:42;96373.94;;;9.44;91.79
75008;BME280;63554;48.940;12.050;2023-04-24T04:49:46;96369.59;;;9.43;91.83
75008;BME280;63554;48.940;12.050;2023-04-24T04:53:50;96371.38;;;9.37;91.83
75008;BME280;63554;48.940;12.050;2023-04-24T04:57:54;96379.22;;;9.39;91.73
75008;BME280;63554;48.940;12.050;2023-04-24T05:01:58;96381.31;;;9.37;91.83
75008;BME280;63554;48.940;12.050;2023-04-24T05:06:01;96381.09;;;9.38;91.76
75008;BME280;63554;48.940;12.050;2023-04-24T05:10:07;96375.47;;;9.40;91.49
75008;BME280;63554;48.940;12.050;2023-04-24T05:14:09;96383.44;;;9.35;91.60
75008;BME280;63554;48.940;12.050;2023-04-24T05:18:13;96384.03;;;9.37;91.86
75008;BME280;63554;48.940;12.050;2023-04-24T05:22:16;96400.34;;;9.42;91.89
75008;BME280;63554;48.940;12.050;2023-04-24T05:26:22;96398.09;;;9.39;91.80
75008;BME280;63554;48.940;12.050;2023-04-24T05:30:25;96402.47;;;9.40;92.01
75008;BME280;63554;48.940;12.050;2023-04-24T05:34:28;96409.03;;;9.44;92.00
75008;BME280;63554;48.940;12.050;2023-04-24T05:38:31;96411.75;;;9.44;91.65
75008;BME280;63554;48.940;12.050;2023-04-24T05:42:35;96410.22;;;9.48;91.45
75008;BME280;63554;48.940;12.050;2023-04-24T05:46:37;96413.03;;;9.53;91.46
75008;BME280;63554;48.940;12.050;2023-04-24T05:50:40;96411.38;;;9.64;92.09
75008;BME280;63554;48.940;12.050;2023-04-24T05:54:43;96406.19;;;9.62;91.14
75008;BME280;63554;48.940;12.050;2023-04-24T05:58:47;96415.94;;;9.63;90.83
75008;BME280;63554;48.940;12.050;2023-04-24T06:02:49;96429.59;;;9.68;90.25
75008;BME280;63554;48.940;12.050;2023-04-24T06:06:53;96413.38;;;9.68;89.97
75008;BME280;63554;48.940;12.050;2023-04-24T06:10:57;96422.16;;;9.76;90.22
75008;BME280;63554;48.940;12.050;2023-04-24T06:15:01;96418.06;;;9.73;90.06
75008;BME280;63554;48.940;12.050;2023-04-24T06:19:04;96426.84;;;9.80;90.47
75008;BME280;63554;48.940;12.050;2023-04-24T06:23:06;96421.91;;;9.77;89.87
75008;BME280;63554;48.940;12.050;2023-04-24T06:27:09;96417.09;;;9.79;89.06
75008;BME280;63554;48.940;12.050;2023-04-24T06:31:14;96422.38;;;9.86;89.37
75008;BME280;63554;48.940;12.050;2023-04-24T06:35:17;96425.38;;;10.01;88.97
75008;BME280;63554;48.940;12.050;2023-04-24T06:39:21;96427.38;;;10.06;88.88
75008;BME280;63554;48.940;12.050;2023-04-24T06:43:23;96432.78;;;10.06;88.63
75008;BME280;63554;48.940;12.050;2023-04-24T06:47:27;96431.22;;;10.22;88.70
75008;BME280;63554;48.940;12.050;2023-04-24T06:51:30;96426.03;;;10.20;87.92
75008;BME280;63554;48.940;12.050;2023-04-24T06:55:35;96431.09;;;10.17;87.02
75008;BME280;63554;48.940;12.050;2023-04-24T06:59:38;96426.44;;;10.12;86.90
75008;BME280;63554;48.940;12.050;2023-04-24T07:03:42;96428.91;;;10.14;86.36
75008;BME280;63554;48.940;12.050;2023-04-24T07:07:46;96427.94;;;10.20;86.52
75008;BME280;63554;48.940;12.050;2023-04-24T07:11:49;96436.84;;;10.20;86.09
75008;BME280;63554;48.940;12.050;2023-04-24T07:15:53;96432.03;;;10.22;86.36
75008;BME280;63554;48.940;12.050;2023-04-24T07:19:58;96430.00;;;10.29;85.79
75008;BME280;63554;48.940;12.050;2023-04-24T07:24:01;96427.94;;;10.32;85.58
75008;BME280;63554;48.940;12.050;2023-04-24T07:28:04;96431.91;;;10.41;85.77
75008;BME280;63554;48.940;12.050;2023-04-24T07:32:07;96432.94;;;10.68;84.99
75008;BME280;63554;48.940;12.050;2023-04-24T07:36:12;96431.28;;;10.67;84.57
75008;BME280;63554;48.940;12.050;2023-04-24T07:40:18;96435.97;;;10.72;83.75
75008;BME280;63554;48.940;12.050;2023-04-24T07:44:21;96435.00;;;10.78;83.40
75008;BME280;63554;48.940;12.050;2023-04-24T07:48:23;96442.16;;;10.84;83.06
75008;BME280;63554;48.940;12.050;2023-04-24T07:52:29;96456.91;;;10.77;83.38
75008;BME280;63554;48.940;12.050;2023-04-24T07:56:32;96458.34;;;10.67;83.64
75008;BME280;63554;48.940;12.050;2023-04-24T08:00:35;96460.91;;;10.74;83.64
75008;BME280;63554;48.940;12.050;2023-04-24T08:04:38;96452.31;;;10.77;83.04
75008;BME280;63554;48.940;12.050;2023-04-24T08:08:42;96454.38;;;10.87;82.17
75008;BME280;63554;48.940;12.050;2023-04-24T08:12:45;96452.97;;;11.01;81.34
75008;BME280;63554;48.940;12.050;2023-04-24T08:16:48;96447.66;;;11.40;81.39
75008;BME280;63554;48.940;12.050;2023-04-24T08:20:50;96440.81;;;11.72;78.81
75008;BME280;63554;48.940;12.050;2023-04-24T08:24:55;96443.16;;;12.24;77.59
75008;BME280;63554;48.940;12.050;2023-04-24T08:28:58;96439.75;;;12.12;76.93
75008;BME280;63554;48.940;12.050;2023-04-24T08:33:01;96506.13;;;11.53;79.47
75008;BME280;63554;48.940;12.050;2023-04-24T08:37:03;96511.31;;;10.63;70.80
75008;BME280;63554;48.940;12.050;2023-04-24T08:41:08;96520.72;;;9.85;72.17
75008;BME280;63554;48.940;12.050;2023-04-24T08:45:12;96510.66;;;9.15;76.89
75008;BME280;63554;48.940;12.050;2023-04-24T08:49:15;96510.88;;;9.01;79.53
75008;BME280;63554;48.940;12.050;2023-04-24T08:53:18;96509.75;;;9.21;nan
75008;BME280;63554;48.940;12.050;2023-04-24T08:57:22;96502.41;;;9.63;80.03
75008;BME280;63554;48.940;12.050;2023-04-24T09:01:27;96508.50;;;9.94;77.86
75008;BME280;63554;48.940;12.050;2023-04-24T09:05:30;96512.84;;;9.95;78.73
75008;BME280;63554;48.940;12.050;2023-04-24T09:09:34;96504.22;;;10.22;80.15
75008;BME280;63554;48.940;12.050;2023-04-24T09:13:39;96504.53;;;10.49;77.67
75008;BME280;63554;48.940;12.050;2023-04-24T09:17:43;96505.84;;;11.04;77.27
75008;BME280;63554;48.940;12.050;2023-04-24T09:21:46;96497.50;;;10.94;74.69
75008;BME280;63554;48.940;12.050;2023-04-24T09:25:54;96501.97;;;11.00;75.26
75008;BME280;63554;48.940;12.050;2023-04-24T09:30:00;96492.41;;;10.80;76.16
75008;BME280;63554;48.940;12.050;2023-04-24T09:34:04;96502.75;;;10.83;74.80
75008;BME280;63554;48.940;12.050;2023-04-24T09:38:08;96507.88;;;10.97;74.32
75008;BME280;63554;48.940;12.050;2023-04-24T09:42:12;96521.31;;;11.37;74.51
75008;BME280;63554;48.940;12.050;2023-04-24T09:46:18;96528.09;;;11.74;71.42
75008;BME280;63554;48.940;12.050;2023-04-24T09:50:23;96516.59;;;11.83;69.21
75008;BME280;63554;48.940;12.050;2023-04-24T09:54:25;96521.69;;;12.14;69.98
75008;BME280;63554;48.940;12.050;2023-04-24T09:58:29;96521.75;;;12.19;68.69
75008;BME280;63554;48.940;12.050;2023-04-24T10:02:33;96532.81;;;11.78;69.22
75008;BME280;63554;48.940;12.050;2023-04-24T10:06:36;96534.84;;;11.54;70.36
75008;BME280;63554;48.940;12.050;2023-04-24T10:10:41;96533.03;;;11.60;71.43
75008;BME280;63554;48.940;12.050;2023-04-24T10:14:45;96535.84;;;11.65;69.30
75008;BME280;63554;48.940;12.050;2023-04-24T10:18:50;96531.25;;;11.65;64.89
75008;BME280;63554;48.940;12.050;2023-04-24T10:22:54;96534.09;;;11.42;65.08
75008;BME280;63554;48.940;12.050;2023-04-24T10:26:57;96536.97;;;11.52;64.32
75008;BME280;63554;48.940;12.050;2023-04-24T10:31:00;96537.22;;;11.67;64.59
75008;BME280;63554;48.940;12.050;2023-04-24T10:35:06;96528.47;;;11.60;64.63
75008;BME280;63554;48.940;12.050;2023-04-24T10:39:11;96535.66;;;11.38;62.30
75008;BME280;63554;48.940;12.050;2023-04-24T10:43:17;96539.53;;;11.42;62.71
75008;BME280;63554;48.940;12.050;2023-04-24T10:47:20;96543.63;;;11.61;62.64
75008;BME280;63554;48.940;12.050;2023-04-24T10:51:25;96534.47;;;11.96;61.82
75008;BME280;63554;48.940;12.050;2023-04-24T10:55:47;96543.38;;;12.14;60.61
75008;BME280;63554;48.940;12.050;2023-04-24T10:59:52;96535.81;;;12.16;60.07
75008;BME280;63554;48.940;12.050;2023-04-24T11:04:13;96537.63;;;12.10;57.82
75008;BME280;63554;48.940;12.050;2023-04-24T11:08:24;96533.53;;;12.07;59.40
75008;BME280;63554;48.940;12.050;2023-04-24T11:12:27;96531.56;;;11.86;60.20
75008;BME280;63554;48.940;12.050;2023-04-24T11:16:31;96533.53;;;11.74;61.22
75008;BME280;63554;48.940;12.050;2023-04-24T11:20:35;96531.75;;;11.62;61.98
75008;BME280;63554;48.940;12.050;2023-04-24T11:24:48;96544.06;;;11.53;62.21
75008;BME280;63554;48.940;12.050;2023-04-24T11:28:52;96553.88;;;11.42;63.79
75008;BME280;63554;48.940;12.050;2023-04-24T11:33:01;96583.22;;;11.17;67.99
75008;BME280;63554;48.940;12.050;2023-04-24T11:37:05;96585.81;;;10.31;70.54
75008;BME280;63554;48.940;12.050;2023-04-24T11:41:09;96580.88;;;10.04;74.89
75008;BME280;63554;48.940;12.050;2023-04-24T11:45:14;96573.13;;;10.19;73.14
75008;BME280;63554;48.940;12.050;2023-04-24T11:49:17;96572.03;;;10.96;72.49
75008;BME280;63554;48.940;12.050;2023-04-24T11:53:20;96577.03;;;11.33;65.81
75008;BME280;63554;48.940;12.050;2023-04-24T11:57:25;96570.75;;;12.12;66.63
75008;BME280;63554;48.940;12.050;2023-04-24T12:01:42;96550.72;;;12.79;62.53
75008;BME280;63554;48.940;12.050;2023-04-24T12:05:45;96554.31;;;12.85;60.58
75008;BME280;63554;48.940;12.050;2023-04-24T12:09:50;96555.78;;;12.93;60.42
75008;BME280;63554;48.940;12.050;2023-04-24T12:14:10;96558.34;;;13.04;60.22
75008;BME280;63554;48.940;12.050;2023-04-24T12:18:14;96561.97;;;12.66;60.91
75008;BME280;63554;48.940;12.050;2023-04-24T12:22:18;96563.94;;;11.93;61.46
75008;BME280;63554;48.940;12.050;2023-04-24T12:26:21;96569.38;;;11.93;63.04
75008;BME280;63554;48.940;12.050;2023-04-24T12:30:28;96563.47;;;11.96;62.26
75008;BME280;63554;48.940;12.050;2023-04-24T12:34:31;96561.81;;;11.95;61.42
75008;BME280;63554;48.940;12.050;2023-04-24T12:38:34;96571.84;;;11.94;60.18
75008;BME280;63554;48.940;12.050;2023-04-24T12:42:42;96565.19;;;12.02;59.82
75008;BME280;63554;48.940;12.050;2023-04-24T12:46:47;96552.41;;;12.19;55.99
75008;BME280;63554;48.940;12.050;2023-04-24T12:50:49;96561.03;;;12.33;53.54
75008;BME280;63554;48.940;12.050;2023-04-24T12:54:53;96560.59;;;12.63;51.72
75008;BME280;63554;48.940;12.050;2023-04-24T12:58:56;96563.84;;;12.88;50.95
75008;BME280;63554;48.940;12.050;2023-04-24T13:03:00;96560.25;;;12.60;52.26
75008;BME280;63554;48.940;12.050;2023-04-24T13:07:04;96569.53;;;12.64;52.55
75008;BME280;63554;48.940;12.050;2023-04-24T13:11:07;96566.34;;;12.45;51.43
75008;BME280;63554;48.940;12.050;2023-04-24T13:15:10;96580.53;;;12.96;50.78
75008;BME280;63554;48.940;12.050;2023-04-24T13:19:14;96575.44;;;13.27;49.83
75008;BME280;63554;48.940;12.050;2023-04-24T13:23:17;96568.03;;;14.14;49.33
75008;BME280;63554;48.940;12.050;2023-04-24T13:27:20;96573.72;;;14.08;48.39
75008;BME280;63554;48.940;12.050;2023-04-24T13:31:23;96577.97;;;13.61;50.28
75008;BME280;63554;48.940;12.050;2023-04-24T13:35:27;96569.94;;;13.22;51.60
75008;BME280;63554;48.940;12.050;2023-04-24T13:39:30;96576.31;;;13.05;49.88
75008;BME280;63554;48.940;12.050;2023-04-24T13:43:33;96576.19;;;12.73;49.42
75008;BME280;63554;48.940;12.050;2023-04-24T13:47:36;96571.06;;;12.77;51.69
75008;BME280;63554;48.940;12.050;2023-04-24T13:51:43;96576.50;;;12.55;51.14
75008;BME280;63554;48.940;12.050;2023-04-24T13:55:47;96591.69;;;12.56;51.34
75008;BME280;63554;48.940;12.050;2023-04-24T13:59:49;96606.63;;;12.36;46.71
75008;BME280;63554;48.940;12.050;2023-04-24T14:03:52;96599.09;;;12.21;47.43
75008;BME280;63554;48.940;12.050;2023-04-24T14:07:57;96602.78;;;12.32;46.96
75008;BME280;63554;48.940;12.050;2023-04-24T14:12:00;96590.53;;;12.30;47.55
75008;BME280;63554;48.940;12.050;2023-04-24T14:16:04;96591.69;;;12.56;49.05
75008;BME280;63554;48.940;12.050;2023-04-24T14:20:07;96607.47;;;12.37;48.91
75008;BME280;63554;48.940;12.050;2023-04-24T14:24:11;96616.38;;;12.54;48.98
75008;BME280;63554;48.940;12.050;2023-04-24T14:28:15;96602.66;;;12.44;49.17
75008;BME280;63554;48.940;12.050;2023-04-24T14:32:17;96607.78;;;12.40;49.73
75008;BME280;63554;48.940;12.050;2023-04-24T14:36:20;96606.88;;;12.35;50.18
75008;BME280;63554;48.940;12.050;2023-04-24T14:40:25;96605.25;;;12.34;51.12
75008;BME280;63554;48.940;12.050;2023-04-24T14:44:48;96602.72;;;11.93;48.75
75008;BME280;63554;48.940;12.050;2023-04-24T14:48:50;96612.91;;;12.03;49.20
75008;BME280;63554;48.940;12.050;2023-04-24T14:52:54;96610.09;;;11.81;47.79
75008;BME280;63554;48.940;12.050;2023-04-24T14:57:00;96622.47;;;11.60;47.83
75008;BME280;63554;48.940;12.050;2023-04-24T15:01:02;96611.88;;;11.58;48.85
75008;BME280;63554;48.940;12.050;2023-04-24T15:05:06;96603.84;;;11.63;49.15
75008;BME280;63554;48.940;12.050;2023-04-24T15:09:10;96617.72;;;11.67;49.24
75008;BME280;63554;48.940;12.050;2023-04-24T15:13:14;96628.41;;;11.57;50.23
75008;BME280;63554;48.940;12.050;2023-04-24T15:17:17;96629.63;;;11.49;51.99
75008;BME280;63554;48.940;12.050;2023-04-24T15:21:19;96628.25;;;11.35;52.24
75008;BME280;63554;48.940;12.050;2023-04-24T15:25:22;96627.59;;;11.27;52.49
75008;BME280;63554;48.940;12.050;2023-04-24T15:29:26;96635.31;;;11.07;53.57
75008;BME280;63554;48.940;12.050;2023-04-24T15:33:29;96642.03;;;11.04;54.58
75008;BME280;63554;48.940;12.050;2023-04-24T15:37:32;96627.75;;;11.09;53.04
75008;BME280;63554;48.940;12.050;2023-04-24T15:41:35;96638.72;;;11.43;52.82
75008;BME280;63554;48.940;12.050;2023-04-24T15:45:39;96639.25;;;11.74;52.58
75008;BME280;63554;48.940;12.050;2023-04-24T15:49:42;96634.75;;;11.79;53.04
75008;BME280;63554;48.940;12.050;2023-04-24T15:53:44;96660.19;;;11.90;52.56
75008;BME280;63554;48.940;12.050;2023-04-24T15:57:48;96655.22;;;12.21;51.70
75008;BME280;63554;48.940;12.050;2023-04-24T16:01:52;96653.03;;;12.01;51.86
75008;BME280;63554;48.940;12.050;2023-04-24T16:05:56;96656.63;;;11.90;52.65
75008;BME280;63554;48.940;12.050;2023-04-24T16:09:58;96647.03;;;11.70;52.84
75008;BME280;63554;48.940;12.050;2023-04-24T16:14:01;96651.47;;;11.59;53.45
75008;BME280;63554;48.940;12.050;2023-04-24T16:18:05;96655.41;;;11.52;54.09
75008;BME280;63554;48.940;12.050;2023-04-24T16:22:08;96661.34;;;11.37;54.29
75008;BME280;63554;48.940;12.050;2023-04-24T16:26:11;96667.50;;;11.32;55.38
75008;BME280;63554;48.940;12.050;2023-04-24T16:30:14;96677.59;;;11.08;54.49
75008;BME280;63554;48.940;12.050;2023-04-24T16:34:18;96689.59;;;11.00;55.60
75008;BME280;63554;48.940;12.050;2023-04-24T16:38:20;96684.25;;;10.65;56.63
75008;BME280;63554;48.940;12.050;2023-04-24T16:42:24;96684.25;;;10.65;56.84
75008;BME280;63554;48.940;12.050;2023-04-24T16:46:28;96684.94;;;10.60;56.64
75008;BME280;63554;48.940;12.050;2023-04-24T16:50:32;96677.50;;;10.79;54.97
75008;BME280;63554;48.940;12.050;2023-04-24T16:54:36;96688.94;;;10.81;55.04
75008;BME280;63554;48.940;12.050;2023-04-24T16:58:39;96693.03;;;11.07;53.76
75008;BME280;63554;48.940;12.050;2023-04-24T17:02:41;96691.53;;;11.57;52.13
75008;BME280;63554;48.940;12.050;2023-04-24T17:06:46;96705.03;;;11.00;53.67
75008;BME280;63554;48.940;12.050;2023-04-24T17:10:49;96700.72;;;10.75;54.31
75008;BME280;63554;48.940;12.050;2023-04-24T17:14:52;96686.72;;;10.55;55.47
75008;BME280;63554;48.940;12.050;2023-04-24T17:18:54;96692.44;;;10.94;54.10
75008;BME280;63554;48.940;12.050;2023-04-24T17:22:58;96700.19;;;11.14;53.85
75008;BME280;63554;48.940;12.050;2023-04-24T17:27:01;96709.75;;;10.93;54.35
75008;BME280;63554;48.940;12.050;2023-04-24T17:31:15;96698.31;;;11.02;55.84
75008;BME280;63554;48.940;12.050;2023-04-24T17:35:17;96703.13;;;11.12;54.09
75008;BME280;63554;48.940;12.050;2023-04-24T17:39:24;96702.94;;;10.78;54.13
75008;BME280;63554;48.940;12.050;2023-04-24T17:43:27;96712.72;;;10.67;54.27
75008;BME280;63554;48.940;12.050;2023-04-24T17:47:29;96713.44;;;10.39;55.93
75008;BME280;63554;48.940;12.050;2023-04-24T17:51:33;96711.31;;;9.99;56.91
75008;BME280;63554;48.940;12.050;2023-04-24T17:55:37;96723.03;;;9.81;57.85
75008;BME280;63554;48.940;12.050;2023-04-24T17:59:40;96717.00;;;9.67;58.33
75008;BME280;63554;48.940;12.050;2023-04-24T18:03:43;96723.78;;;9.58;58.96
75008;BME280;63554;48.940;12.050;2023-04-24T18:07:45;96723.50;;;9.48;59.38
75008;BME280;63554;48.940;12.050;2023-04-24T18:11:49;96724.72;;;9.34;60.79
75008;BME280;63554;48.940;12.050;2023-04-24T18:15:52;96723.97;;;9.26;61.20
75008;BME280;63554;48.940;12.050;2023-04-24T18:19:55;96727.22;;;9.17;61.89
75008;BME280;63554;48.940;12.050;2023-04-24T18:23:58;96728.56;;;9.07;62.51
75008;BME280;63554;48.940;12.050;2023-04-24T18:28:02;96731.56;;;8.99;63.29
75008;BME280;63554;48.940;12.050;2023-04-24T18:32:05;96746.66;;;8.88;63.13
75008;BME280;63554;48.940;12.050;2023-04-24T18:36:08;96754.34;;;8.85;63.63
75008;BME280;63554;48.940;12.050;2023-04-24T18:40:11;96753.22;;;8.74;64.03
75008;BME280;63554;48.940;12.050;2023-04-24T18:44:16;96767.59;;;8.68;64.66
75008;BME280;63554;48.940;12.050;2023-04-24T18:48:19;96773.28;;;8.60;65.27
75008;BME280;63554;48.940;12.050;2023-04-24T18:52:22;96773.13;;;8.55;65.56
75008;BME280;63554;48.940;12.050;2023-04-24T18:56:25;96776.69;;;8.48;65.56
75008;BME280;63554;48.940;12.050;2023-04-24T19:00:29;96781.94;;;8.43;66.05
75008;BME280;63554;48.940;12.050;2023-04-24T19:04:32;96787.31;;;8.37;66.43
75008;BME280;63554;48.940;12.050;2023-04-24T19:08:35;96792.38;;;8.26;66.63
75008;BME280;63554;48.940;12.050;2023-04-24T19:12:39;96798.25;;;8.23;66.91
75008;BME280;63554;48.940;12.050;2023-04-24T19:16:43;96789.16;;;8.18;66.67
75008;BME280;63554;48.940;12.050;2023-04-24T19:20:45;96802.16;;;8.21;66.95
75008;BME280;63554;48.940;12.050;2023-04-24T19:24:48;96810.09;;;8.16;67.10
75008;BME280;63554;48.940;12.050;2023-04-24T19:28:51;96811.19;;;8.08;68.04
75008;BME280;63554;48.940;12.050;2023-04-24T19:32:59;96812.66;;;8.04;68.57
75008;BME280;63554;48.940;12.050;2023-04-24T19:37:02;96810.59;;;7.99;68.38
75008;BME280;63554;48.940;12.050;2023-04-24T19:41:04;96812.47;;;7.99;68.76
75008;BME280;63554;48.940;12.050;2023-04-24T19:45:08;96808.97;;;7.98;68.42
75008;BME280;63554;48.940;12.050;2023-04-24T19:49:13;96811.47;;;8.00;68.60
75008;BME280;63554;48.940;12.050;2023-04-24T19:53:17;96811.81;;;8.03;68.59
75008;BME280;63554;48.940;12.050;2023-04-24T19:57:20;96820.31;;;8.07;68.95
75008;BME280;63554;48.940;12.050;2023-04-24T20:01:23;96817.00;;;8.05;68.76
75008;BME280;63554;48.940;12.050;2023-04-24T20:05:27;96817.22;;;8.03;69.18
75008;BME280;63554;48.940;12.050;2023-04-24T20:09:30;96813.75;;;7.96;69.17
75008;BME280;63554;48.940;12.050;2023-04-24T20:13:34;96813.56;;;7.91;69.27
75008;BME280;63554;48.940;12.050;2023-04-24T20:17:36;96806.75;;;7.88;69.74
75008;BME280;63554;48.940;12.050;2023-04-24T20:21:41;96809.22;;;7.90;70.16
75008;BME280;63554;48.940;12.050;2023-04-24T20:25:43;96818.09;;;7.97;70.07
75008;BME280;63554;48.940;12.050;2023-04-24T20:29:46;96810.81;;;7.98;69.57
75008;BME280;63554;48.940;12.050;2023-04-24T20:33:49;96812.47;;;7.99;69.97
75008;BME280;63554;48.940;12.050;2023-04-24T20:37:53;96811.06;;;7.96;70.50
75008;BME280;63554;48.940;12.050;2023-04-24T20:41:55;96814.56;;;7.97;71.02
75008;BME280;63554;48.940;12.050;2023-04-24T20:45:59;96823.91;;;7.94;71.97
75008;BME280;63554;48.940;12.050;2023-04-24T20:50:02;96815.03;;;7.87;72.24
75008;BME280;63554;48.940;12.050;2023-04-24T20:54:07;96804.69;;;7.84;72.48
75008;BME280;63554;48.940;12.050;2023-04-24T20:58:10;96809.69;;;7.80;71.56
75008;BME280;63554;48.940;12.050;2023-04-24T21:02:13;96811.81;;;7.71;71.70
75008;BME280;63554;48.940;12.050;2023-04-24T21:06:16;96802.50;;;7.67;72.52
75008;BME280;63554;48.940;12.050;2023-04-24T21:10:21;96817.63;;;7.68;71.89
75008;BME280;63554;48.940;12.050;2023-04-24T21:14:23;96811.00;;;7.64;72.29
75008;BME280;63554;48.940;12.050;2023-04-24T21:18:26;96814.34;;;7.66;73.08